Paxton, Texas
Current Conditions -  °F | °C
As of 3:24 AM on Sunday 21 Dec 2014 (Local Time) from KSHV Reporting Station
Haze Haze  
Wind Chill:   Ceiling: Unl
Heat Index:   Visibility: 0.75mi
Dew Point:   Wind: 0mph
Humidity: 97%   Direction: NA
Pressure: 30.16"   Gusts: NA
Location:  31.9194°N, 94.0667°W
Report Text: KSHV 210924Z 00000KT 3/4SM BR FEW001 02/02 A3016 RMK AO2 VIS NW-NE 1 1/2 T00220017
Loading
Personal Weather Stations






























Interactive Weather Map New forecast layout! Learn more

10-Day Weather Forecast

Advertisements
Track Severe Weather on mobile